Ana Sayfa
METAR-TAF:

METAR-TAF

Havaalanları :

Hefei, Çin

Enlem: 31-52N, Boylam: 117-14E, yükseklik: 36 m

Güncel hava durumu gözlemi

Rapor saat 21:00 UTC de 37 dakika önce yapıldı.
Rüzgar güneydan 8 kt
Sıcaklık 30°C
Nem 75%
Basınç 1002 hPa
Görüş mesafesi 10 km veya daha fazla
1500 m altında bulut yok ve kümülonimbus yok

METAR: ZSOF 212100Z 17004MPS CAVOK 30/25 Q1002 NOSIG

Saat: 05:37 (21:37 UTC)

Tahmin

Rapor saat 15:02 UTC de 6 saat ve 35 dakika önce yapıldı.
Ayın 21'si saat 18 UTC'den ayın 22'si saat 18 UTC'ye kadar geçerli Tahmin
Rüzgar güneydan 8 kt
Görüş mesafesi: 6000 m

TAF: ZSOF 211502Z 2118/2218 19004MPS 6000 NSC TX36/2206Z TN28/2121Z

4.000'den fazla havaalanı için hava durumu gözlemleri ve tahminleri (METAR ve TAF raporları).

Kullanılabilir istasyonlar harita üzerinde sarı ve kırmızı noktalarla gösterilir.

İstasyonun adını görmek için fareyi noktanın üzerinde gezdirin.

Sonrasında hava gözlem ve tahminlerini görmek için tıklayın.

Haritayı değiştirmek için: yaklaştırmak için siyah artı işaretli yeşil düğmeye ve uzaklaştırmak için de eksi işaretli düğmeye hızla tıklayın; bitişik haritalar için yeşil okları kullanın.


METAR-TAF: